createdAt,value
2023-12-17T00:00:45.228Z,97641.81
2023-12-17T00:03:18.967Z,97640.41
2023-12-17T00:05:48.942Z,97647.97
2023-12-17T00:08:16.095Z,97644.09
2023-12-17T00:10:43.037Z,97640.88
2023-12-17T00:13:10.034Z,97637.13
2023-12-17T00:15:37.010Z,97656.25
2023-12-17T00:18:07.127Z,97648.09
2023-12-17T00:20:34.577Z,97650.34
2023-12-17T00:23:01.802Z,97652.38
2023-12-17T00:25:28.831Z,97645.88
2023-12-17T00:27:55.930Z,97643.47
2023-12-17T00:30:22.983Z,97643.59
2023-12-17T00:32:53.200Z,97651.63
2023-12-17T00:35:22.344Z,97643.00
2023-12-17T00:37:49.540Z,97646.09
2023-12-17T00:40:16.746Z,97643.84
2023-12-17T00:42:43.759Z,97643.50
2023-12-17T00:45:11.413Z,97638.38
2023-12-17T00:47:39.099Z,97633.31
2023-12-17T00:50:07.373Z,97625.38
2023-12-17T00:52:35.802Z,97633.31
2023-12-17T00:55:02.853Z,97633.91
2023-12-17T00:57:29.826Z,97634.03
2023-12-17T00:59:56.865Z,97630.03
2023-12-17T01:02:23.905Z,97627.19
2023-12-17T01:04:51.094Z,97629.78
2023-12-17T01:07:18.076Z,97627.50
2023-12-17T01:09:46.361Z,97624.22
2023-12-17T01:12:13.373Z,97628.25
2023-12-17T01:14:40.391Z,97638.66
2023-12-17T01:17:07.444Z,97627.41
2023-12-17T01:19:37.294Z,97621.97
2023-12-17T01:22:04.779Z,97627.41
2023-12-17T01:24:31.711Z,97633.69
2023-12-17T01:27:00.273Z,97628.69
2023-12-17T01:29:27.374Z,97631.63
2023-12-17T01:31:54.327Z,97626.69
2023-12-17T01:34:21.537Z,97622.19
2023-12-17T01:36:48.531Z,97629.50
2023-12-17T01:39:15.668Z,97634.25
2023-12-17T01:41:42.715Z,97635.53
2023-12-17T01:44:11.166Z,97634.72
2023-12-17T01:46:39.246Z,97635.19
2023-12-17T01:49:07.388Z,97633.28
2023-12-17T01:51:34.888Z,97633.28
2023-12-17T01:54:02.031Z,97630.69
2023-12-17T01:56:30.661Z,97623.31
2023-12-17T01:58:58.957Z,97616.34
2023-12-17T02:01:27.765Z,97620.72
2023-12-17T02:03:56.337Z,97621.13
2023-12-17T02:06:23.582Z,97620.66
2023-12-17T02:08:50.745Z,97622.44
2023-12-17T02:11:17.650Z,97628.31
2023-12-17T02:13:44.695Z,97620.03
2023-12-17T02:16:11.657Z,97616.97
2023-12-17T02:18:40.203Z,97620.63
2023-12-17T02:21:07.559Z,97620.28
2023-12-17T02:23:36.078Z,97618.38
2023-12-17T02:26:03.169Z,97617.69
2023-12-17T02:28:30.427Z,97616.84
2023-12-17T02:30:57.504Z,97628.38
2023-12-17T02:33:24.833Z,97631.34
2023-12-17T02:35:51.969Z,97632.75
2023-12-17T02:38:18.984Z,97626.38
2023-12-17T02:40:47.341Z,97614.31
2023-12-17T02:43:14.568Z,97616.66
2023-12-17T02:45:41.515Z,97624.22
2023-12-17T02:48:08.578Z,97617.84
2023-12-17T02:50:35.552Z,97618.28
2023-12-17T02:53:02.550Z,97608.47
2023-12-17T02:55:29.532Z,97616.06
2023-12-17T02:57:57.961Z,97619.94
2023-12-17T03:00:24.938Z,97620.03
2023-12-17T03:02:52.177Z,97617.44
2023-12-17T03:05:19.274Z,97625.50
2023-12-17T03:07:46.269Z,97622.66
2023-12-17T03:10:13.502Z,97627.06
2023-12-17T03:12:40.489Z,97633.91
2023-12-17T03:15:09.836Z,97628.56
2023-12-17T03:17:37.027Z,97625.59
2023-12-17T03:20:04.950Z,97627.13
2023-12-17T03:22:32.067Z,97630.94
2023-12-17T03:24:59.501Z,97622.75
2023-12-17T03:27:26.602Z,97630.56
2023-12-17T03:29:54.558Z,97624.97
2023-12-17T03:32:23.252Z,97629.94
2023-12-17T03:34:50.446Z,97638.81
2023-12-17T03:37:17.579Z,97646.06
2023-12-17T03:39:44.460Z,97642.25
2023-12-17T03:42:11.582Z,97639.78
2023-12-17T03:44:38.540Z,97638.69
2023-12-17T03:47:05.718Z,97635.00
2023-12-17T03:49:34.098Z,97646.13
2023-12-17T03:52:03.498Z,97639.03
2023-12-17T03:54:30.432Z,97645.75
2023-12-17T03:56:57.461Z,97634.88
2023-12-17T03:59:24.472Z,97635.47
2023-12-17T04:01:51.346Z,97642.91
2023-12-17T04:04:18.340Z,97648.72
2023-12-17T04:06:46.656Z,97649.97
2023-12-17T04:09:13.648Z,97657.78
2023-12-17T04:11:40.664Z,97664.41
2023-12-17T04:14:07.636Z,97654.28
2023-12-17T04:16:34.654Z,97648.00
2023-12-17T04:19:01.900Z,97642.34
2023-12-17T04:21:29.110Z,97656.81
2023-12-17T04:23:57.753Z,97656.81
2023-12-17T04:26:24.764Z,97655.31
2023-12-17T04:28:51.888Z,97655.81
2023-12-17T04:31:18.966Z,97659.81
2023-12-17T04:33:46.095Z,97663.94
2023-12-17T04:36:13.242Z,97670.38
2023-12-17T04:38:40.308Z,97670.81
2023-12-17T04:41:08.860Z,97666.44
2023-12-17T04:43:35.951Z,97675.28
2023-12-17T04:46:03.185Z,97667.09
2023-12-17T04:48:30.308Z,97667.19
2023-12-17T04:50:57.310Z,97676.75
2023-12-17T04:53:24.293Z,97675.09
2023-12-17T04:55:51.410Z,97672.38
2023-12-17T04:58:19.859Z,97668.69
2023-12-17T05:00:46.811Z,97676.31
2023-12-17T05:03:13.797Z,97678.09
2023-12-17T05:05:41.203Z,97673.13
2023-12-17T05:08:08.280Z,97672.69
2023-12-17T05:10:35.422Z,97668.59
2023-12-17T05:13:02.473Z,97669.81
2023-12-17T05:15:31.081Z,97674.78
2023-12-17T05:17:58.308Z,97670.22
2023-12-17T05:20:25.555Z,97672.22
2023-12-17T05:22:52.752Z,97679.22
2023-12-17T05:25:19.905Z,97689.66
2023-12-17T05:27:46.974Z,97678.63
2023-12-17T05:30:14.510Z,97675.22
2023-12-17T05:32:43.519Z,97671.91
2023-12-17T05:35:10.673Z,97679.84
2023-12-17T05:37:37.847Z,97679.59
2023-12-17T05:40:06.226Z,97680.44
2023-12-17T05:42:33.327Z,97681.94
2023-12-17T05:45:00.555Z,97679.59
2023-12-17T05:47:27.749Z,97683.16
2023-12-17T05:49:56.557Z,97674.63
2023-12-17T05:52:23.969Z,97673.81
2023-12-17T05:54:51.002Z,97675.31
2023-12-17T05:57:18.095Z,97670.13
2023-12-17T05:59:45.237Z,97674.63
2023-12-17T06:02:12.203Z,97678.41
2023-12-17T06:04:39.478Z,97678.06
2023-12-17T06:07:08.163Z,97677.84
2023-12-17T06:09:35.345Z,97681.56
2023-12-17T06:12:02.565Z,97686.41
2023-12-17T06:14:29.648Z,97680.50
2023-12-17T06:16:56.706Z,97680.38
2023-12-17T06:19:23.793Z,97682.66
2023-12-17T06:21:50.904Z,97685.94
2023-12-17T06:24:19.345Z,97685.00
2023-12-17T06:26:46.613Z,97678.72
2023-12-17T06:29:13.743Z,97677.19
2023-12-17T06:31:41.357Z,97680.22
2023-12-17T06:34:08.613Z,97677.63
2023-12-17T06:36:35.706Z,97686.28
2023-12-17T06:39:02.912Z,97687.34
2023-12-17T06:41:31.526Z,97696.66
2023-12-17T06:43:58.703Z,97692.56
2023-12-17T06:46:25.793Z,97694.25
2023-12-17T06:48:53.046Z,97691.63
2023-12-17T06:51:20.697Z,97681.91
2023-12-17T06:53:50.370Z,97691.63
2023-12-17T06:56:18.541Z,97690.66
2023-12-17T06:58:47.018Z,97697.41
2023-12-17T07:01:14.199Z,97699.06
2023-12-17T07:03:41.247Z,97696.47
2023-12-17T07:06:09.548Z,97700.47
2023-12-17T07:08:36.576Z,97691.13
2023-12-17T07:11:03.683Z,97691.50
2023-12-17T07:13:30.750Z,97691.97
2023-12-17T07:15:59.493Z,97697.47
2023-12-17T07:18:26.933Z,97691.44
2023-12-17T07:20:54.089Z,97694.06
2023-12-17T07:23:21.162Z,97693.91
2023-12-17T07:25:48.345Z,97695.97
2023-12-17T07:28:15.377Z,97697.03
2023-12-17T07:30:42.844Z,97696.91
2023-12-17T07:33:11.563Z,97695.78
2023-12-17T07:35:38.818Z,97693.47
2023-12-17T07:38:05.973Z,97692.81
2023-12-17T07:40:33.047Z,97691.53
2023-12-17T07:43:00.095Z,97694.97
2023-12-17T07:45:27.318Z,97694.50
2023-12-17T07:47:54.590Z,97690.16
2023-12-17T07:50:23.180Z,97690.22
2023-12-17T07:52:50.195Z,97689.66
2023-12-17T07:55:17.424Z,97693.50
2023-12-17T07:57:44.521Z,97694.03
2023-12-17T08:00:12.897Z,97697.88
2023-12-17T08:02:40.215Z,97694.16
2023-12-17T08:05:08.312Z,97699.66
2023-12-17T08:07:37.490Z,97700.34
2023-12-17T08:10:05.467Z,97702.31
2023-12-17T08:12:32.595Z,97700.53
2023-12-17T08:14:59.640Z,97693.78
2023-12-17T08:17:26.731Z,97697.47
2023-12-17T08:19:53.831Z,97697.28
2023-12-17T08:22:21.046Z,97686.97
2023-12-17T08:24:49.610Z,97685.34
2023-12-17T08:27:16.740Z,97681.19
2023-12-17T08:29:43.806Z,97691.56
2023-12-17T08:32:10.988Z,97685.97
2023-12-17T08:34:38.037Z,97698.16
2023-12-17T08:37:05.144Z,97696.53
2023-12-17T08:39:32.284Z,97699.13
2023-12-17T08:42:00.862Z,97693.88
2023-12-17T08:44:27.980Z,97698.38
2023-12-17T08:46:55.091Z,97694.34
2023-12-17T08:49:22.324Z,97694.91
2023-12-17T08:51:49.544Z,97696.94
2023-12-17T08:54:16.779Z,97696.53
2023-12-17T08:56:44.022Z,97692.59
2023-12-17T08:59:12.569Z,97696.84
2023-12-17T09:01:39.724Z,97701.34
2023-12-17T09:04:06.851Z,97693.09
2023-12-17T09:06:42.966Z,97695.38
2023-12-17T09:09:10.142Z,97700.47
2023-12-17T09:11:37.274Z,97701.22
2023-12-17T09:14:04.476Z,97703.25
2023-12-17T09:16:33.139Z,97713.66
2023-12-17T09:19:00.468Z,97709.56
2023-12-17T09:21:27.713Z,97711.81
2023-12-17T09:23:54.823Z,97710.69
2023-12-17T09:26:21.857Z,97710.97
2023-12-17T09:28:49.451Z,97714.03
2023-12-17T09:31:16.763Z,97715.06
2023-12-17T09:33:45.485Z,97716.44
2023-12-17T09:36:12.746Z,97714.00
2023-12-17T09:38:39.936Z,97715.13
2023-12-17T09:41:09.078Z,97710.47
2023-12-17T09:43:36.162Z,97711.25
2023-12-17T09:46:03.449Z,97714.59
2023-12-17T09:48:30.874Z,97706.25
2023-12-17T09:50:59.928Z,97711.47
2023-12-17T09:53:27.307Z,97707.94
2023-12-17T09:55:54.676Z,97713.84
2023-12-17T09:58:21.971Z,97705.03
2023-12-17T10:00:49.202Z,97703.34
2023-12-17T10:03:16.677Z,97705.56
2023-12-17T10:05:50.688Z,97702.31
2023-12-17T10:08:19.965Z,97704.00
2023-12-17T10:10:47.423Z,97699.34
2023-12-17T10:13:18.296Z,97696.28
2023-12-17T10:15:48.458Z,97692.66
2023-12-17T10:18:16.241Z,97700.34
2023-12-17T10:20:44.885Z,97689.13
2023-12-17T10:23:13.041Z,97684.16
2023-12-17T10:25:41.523Z,97687.47
2023-12-17T10:28:11.253Z,97677.91
2023-12-17T10:30:39.440Z,97688.72
2023-12-17T10:33:07.401Z,97681.75
2023-12-17T10:35:36.203Z,97675.41
2023-12-17T10:38:05.067Z,97666.19
2023-12-17T10:40:32.995Z,97667.72
2023-12-17T10:43:05.430Z,97664.16
2023-12-17T10:45:34.209Z,97657.66
2023-12-17T10:48:02.535Z,97666.88
2023-12-17T10:50:29.723Z,97662.22
2023-12-17T10:52:56.844Z,97661.94
2023-12-17T10:55:23.909Z,97664.41
2023-12-17T10:57:58.062Z,97659.06
2023-12-17T11:00:30.504Z,97653.69
2023-12-17T11:03:02.546Z,97651.13
2023-12-17T11:05:30.017Z,97649.03
2023-12-17T11:07:57.315Z,97654.56
2023-12-17T11:10:27.117Z,97641.53
2023-12-17T11:12:55.658Z,97638.63
2023-12-17T11:15:24.796Z,97641.09
2023-12-17T11:17:55.552Z,97640.56
2023-12-17T11:20:33.305Z,97636.78
2023-12-17T11:23:02.812Z,97643.66
2023-12-17T11:25:32.649Z,97637.19
2023-12-17T11:27:59.960Z,97641.44
2023-12-17T11:30:28.875Z,97636.50
2023-12-17T11:32:59.817Z,97639.25
2023-12-17T11:35:29.090Z,97629.66
2023-12-17T11:37:56.745Z,97621.16
2023-12-17T11:40:23.983Z,97625.69
2023-12-17T11:42:58.625Z,97620.31
2023-12-17T11:45:32.839Z,97617.56
2023-12-17T11:48:08.172Z,97620.00
2023-12-17T11:50:44.113Z,97614.09
2023-12-17T11:53:12.536Z,97612.44
2023-12-17T11:55:47.668Z,97611.63
2023-12-17T11:58:15.856Z,97614.78
2023-12-17T12:00:43.715Z,97614.53
2023-12-17T12:03:12.317Z,97604.63
2023-12-17T12:05:39.619Z,97606.56
2023-12-17T12:08:06.746Z,97605.31
2023-12-17T12:10:34.915Z,97600.34
2023-12-17T12:13:04.200Z,97609.38
2023-12-17T12:15:31.934Z,97611.63
2023-12-17T12:17:59.170Z,97602.81
2023-12-17T12:20:37.421Z,97608.03
2023-12-17T12:23:09.740Z,97601.59
2023-12-17T12:25:37.917Z,97611.78
2023-12-17T12:28:05.736Z,97600.78
2023-12-17T12:30:32.998Z,97593.13
2023-12-17T12:33:10.959Z,97600.41
2023-12-17T12:35:39.947Z,97595.72
2023-12-17T12:38:23.812Z,97601.63
2023-12-17T12:40:52.436Z,97591.44
2023-12-17T12:43:21.483Z,97591.72
2023-12-17T12:45:50.293Z,97590.75
2023-12-17T12:48:18.803Z,97582.94
2023-12-17T12:50:48.115Z,97595.44
2023-12-17T12:53:25.544Z,97590.75
2023-12-17T12:55:54.858Z,97591.28
2023-12-17T12:58:22.516Z,97584.00
2023-12-17T13:00:50.028Z,97578.53
2023-12-17T13:03:17.352Z,97579.50
2023-12-17T13:05:44.908Z,97571.50
2023-12-17T13:08:13.591Z,97577.16
2023-12-17T13:10:40.755Z,97570.00
2023-12-17T13:13:08.266Z,97570.00
2023-12-17T13:15:35.905Z,97562.72
2023-12-17T13:18:03.385Z,97563.56
2023-12-17T13:20:30.758Z,97565.56
2023-12-17T13:22:58.110Z,97569.69
2023-12-17T13:25:26.695Z,97565.47
2023-12-17T13:27:53.989Z,97561.50
2023-12-17T13:30:21.122Z,97560.41
2023-12-17T13:32:48.725Z,97562.84
2023-12-17T13:35:16.089Z,97560.66
2023-12-17T13:37:45.536Z,97557.03
2023-12-17T13:40:14.127Z,97557.03
2023-12-17T13:42:43.761Z,97555.97
2023-12-17T13:45:11.322Z,97545.13
2023-12-17T13:47:38.474Z,97538.69
2023-12-17T13:50:06.265Z,97543.75
2023-12-17T13:52:33.509Z,97552.53
2023-12-17T13:55:00.873Z,97553.78
2023-12-17T13:57:28.174Z,97553.38
2023-12-17T13:59:57.094Z,97553.38
2023-12-17T14:02:24.320Z,97554.88
2023-12-17T14:04:51.428Z,97555.56
2023-12-17T14:07:20.475Z,97559.72
2023-12-17T14:09:47.713Z,97555.44
2023-12-17T14:12:14.840Z,97558.72
2023-12-17T14:14:42.128Z,97565.03
2023-12-17T14:17:10.794Z,97552.69
2023-12-17T14:19:38.284Z,97559.16
2023-12-17T14:22:05.862Z,97555.97
2023-12-17T14:24:33.302Z,97559.97
2023-12-17T14:27:00.519Z,97558.19
2023-12-17T14:29:27.638Z,97560.75
2023-12-17T14:31:55.047Z,97556.41
2023-12-17T14:34:23.520Z,97551.53
2023-12-17T14:36:50.650Z,97552.91
2023-12-17T14:39:17.787Z,97551.00
2023-12-17T14:41:45.022Z,97561.56
2023-12-17T14:44:12.147Z,97552.78
2023-12-17T14:46:39.214Z,97544.81
2023-12-17T14:49:06.520Z,97543.69
2023-12-17T14:51:35.189Z,97553.44
2023-12-17T14:54:02.449Z,97558.22
2023-12-17T14:56:29.844Z,97549.56
2023-12-17T14:58:57.325Z,97555.63
2023-12-17T15:01:31.216Z,97549.88
2023-12-17T15:04:02.460Z,97552.13
2023-12-17T15:06:30.288Z,97549.53
2023-12-17T15:09:00.297Z,97559.28
2023-12-17T15:11:29.506Z,97550.59
2023-12-17T15:13:57.372Z,97557.00
2023-12-17T15:16:24.549Z,97558.06
2023-12-17T15:18:51.750Z,97554.03
2023-12-17T15:21:18.871Z,97559.44
2023-12-17T15:23:46.120Z,97566.09
2023-12-17T15:26:14.687Z,97563.44
2023-12-17T15:28:41.759Z,97549.94
2023-12-17T15:31:13.367Z,97558.50
2023-12-17T15:33:40.698Z,97554.88
2023-12-17T15:36:08.285Z,97549.25
2023-12-17T15:38:35.416Z,97552.81
2023-12-17T15:41:02.326Z,97557.25
2023-12-17T15:43:30.791Z,97552.06
2023-12-17T15:45:57.943Z,97555.34
2023-12-17T15:48:25.185Z,97559.44
2023-12-17T15:50:52.435Z,97563.31
2023-12-17T15:53:19.642Z,97559.16
2023-12-17T15:55:46.737Z,97562.81
2023-12-17T15:58:13.897Z,97566.94
2023-12-17T16:00:42.443Z,97566.91
2023-12-17T16:03:09.555Z,97567.16
2023-12-17T16:05:36.738Z,97564.13
2023-12-17T16:08:04.090Z,97566.28
2023-12-17T16:10:31.262Z,97566.97
2023-12-17T16:12:58.328Z,97561.59
2023-12-17T16:15:25.423Z,97566.25
2023-12-17T16:17:54.173Z,97564.81
2023-12-17T16:20:21.516Z,97558.16
2023-12-17T16:22:48.785Z,97569.47
2023-12-17T16:25:15.871Z,97575.38
2023-12-17T16:27:42.936Z,97576.59
2023-12-17T16:30:11.183Z,97575.25
2023-12-17T16:32:38.681Z,97580.47
2023-12-17T16:35:08.483Z,97571.94
2023-12-17T16:37:37.147Z,97577.69
2023-12-17T16:40:04.937Z,97577.13
2023-12-17T16:42:32.929Z,97580.81
2023-12-17T16:45:01.375Z,97583.78
2023-12-17T16:47:28.574Z,97576.94
2023-12-17T16:49:56.672Z,97576.44
2023-12-17T16:52:25.292Z,97581.47
2023-12-17T16:54:52.401Z,97579.78
2023-12-17T16:57:19.666Z,97581.13
2023-12-17T16:59:46.931Z,97581.59
2023-12-17T17:02:14.003Z,97577.00
2023-12-17T17:04:41.314Z,97578.84
2023-12-17T17:07:08.403Z,97578.41
2023-12-17T17:09:37.370Z,97579.78
2023-12-17T17:12:05.046Z,97591.63
2023-12-17T17:14:32.147Z,97584.59
2023-12-17T17:16:59.608Z,97588.72
2023-12-17T17:19:26.939Z,97588.44
2023-12-17T17:21:55.404Z,97589.53
2023-12-17T17:24:22.764Z,97594.03
2023-12-17T17:26:51.313Z,97604.09
2023-12-17T17:29:18.440Z,97601.53
2023-12-17T17:31:45.556Z,97599.44
2023-12-17T17:34:12.755Z,97602.88
2023-12-17T17:36:42.480Z,97604.78
2023-12-17T17:39:09.632Z,97600.13
2023-12-17T17:41:36.819Z,97602.22
2023-12-17T17:44:05.886Z,97599.38
2023-12-17T17:46:34.133Z,97596.31
2023-12-17T17:49:02.066Z,97592.91
2023-12-17T17:51:29.251Z,97591.09
2023-12-17T17:53:56.383Z,97592.75
2023-12-17T17:56:23.581Z,97593.31
2023-12-17T17:58:50.717Z,97599.50
2023-12-17T18:01:19.381Z,97596.91
2023-12-17T18:03:47.871Z,97601.53
2023-12-17T18:06:15.126Z,97605.97
2023-12-17T18:08:42.184Z,97602.31
2023-12-17T18:11:09.345Z,97604.81
2023-12-17T18:13:36.545Z,97604.97
2023-12-17T18:16:04.936Z,97605.94
2023-12-17T18:18:33.433Z,97612.22
2023-12-17T18:21:00.655Z,97605.34
2023-12-17T18:23:28.320Z,97608.66
2023-12-17T18:25:55.524Z,97614.13
2023-12-17T18:28:22.734Z,97612.88
2023-12-17T18:30:49.939Z,97620.38
2023-12-17T18:33:17.513Z,97624.03
2023-12-17T18:35:46.161Z,97622.97
2023-12-17T18:38:13.620Z,97613.56
2023-12-17T18:40:40.985Z,97614.66
2023-12-17T18:43:07.962Z,97613.50
2023-12-17T18:45:35.066Z,97614.59
2023-12-17T18:48:02.547Z,97604.91
2023-12-17T18:50:29.882Z,97614.66
2023-12-17T18:52:58.397Z,97609.16
2023-12-17T18:55:25.505Z,97617.69
2023-12-17T18:57:52.644Z,97615.53
2023-12-17T19:00:21.841Z,97614.13
2023-12-17T19:02:49.247Z,97607.53
2023-12-17T19:05:16.438Z,97605.16
2023-12-17T19:07:43.811Z,97607.25
2023-12-17T19:10:12.589Z,97600.97
2023-12-17T19:12:40.034Z,97593.00
2023-12-17T19:15:08.749Z,97602.50
2023-12-17T19:17:35.955Z,97603.56
2023-12-17T19:20:03.113Z,97597.53
2023-12-17T19:22:30.215Z,97609.84
2023-12-17T19:24:57.353Z,97605.44
2023-12-17T19:27:25.852Z,97606.13
2023-12-17T19:29:53.046Z,97605.25
2023-12-17T19:32:20.283Z,97606.56
2023-12-17T19:34:47.547Z,97604.72
2023-12-17T19:37:14.759Z,97605.44
2023-12-17T19:39:41.877Z,97596.25
2023-12-17T19:42:09.081Z,97593.97
2023-12-17T19:44:37.772Z,97599.13
2023-12-17T19:47:05.613Z,97602.03
2023-12-17T19:49:33.004Z,97602.31
2023-12-17T19:52:00.292Z,97598.31
2023-12-17T19:54:27.484Z,97596.78
2023-12-17T19:56:54.669Z,97595.84
2023-12-17T19:59:21.758Z,97601.16
2023-12-17T20:01:50.314Z,97597.22
2023-12-17T20:04:17.369Z,97593.94
2023-12-17T20:06:44.550Z,97594.31
2023-12-17T20:09:11.943Z,97593.81
2023-12-17T20:11:39.029Z,97593.31
2023-12-17T20:14:06.296Z,97595.47
2023-12-17T20:16:33.506Z,97596.53
2023-12-17T20:19:02.205Z,97605.31
2023-12-17T20:21:29.438Z,97602.25
2023-12-17T20:23:56.435Z,97600.97
2023-12-17T20:26:23.468Z,97597.06
2023-12-17T20:28:50.553Z,97606.50
2023-12-17T20:31:17.713Z,97596.19
2023-12-17T20:33:45.432Z,97604.03
2023-12-17T20:36:14.077Z,97606.53
2023-12-17T20:38:41.321Z,97598.16
2023-12-17T20:41:08.426Z,97597.41
2023-12-17T20:43:35.522Z,97587.88
2023-12-17T20:46:03.103Z,97592.50
2023-12-17T20:48:30.818Z,97597.88
2023-12-17T20:50:58.067Z,97594.19
2023-12-17T20:53:26.682Z,97601.56
2023-12-17T20:55:53.866Z,97600.75
2023-12-17T20:58:21.511Z,97598.03
2023-12-17T21:00:48.900Z,97594.84
2023-12-17T21:03:16.245Z,97590.06
2023-12-17T21:05:43.515Z,97597.06
2023-12-17T21:08:10.667Z,97600.50
2023-12-17T21:10:39.250Z,97595.84
2023-12-17T21:13:06.353Z,97597.56
2023-12-17T21:15:33.466Z,97599.06
2023-12-17T21:18:00.862Z,97603.94
2023-12-17T21:20:27.970Z,97601.97
2023-12-17T21:22:55.065Z,97601.53
2023-12-17T21:25:22.123Z,97599.50
2023-12-17T21:27:50.664Z,97599.31
2023-12-17T21:30:18.003Z,97596.97
2023-12-17T21:32:45.413Z,97599.63
2023-12-17T21:35:12.765Z,97589.69
2023-12-17T21:37:40.031Z,97602.56
2023-12-17T21:40:08.634Z,97601.78
2023-12-17T21:42:35.787Z,97593.16
2023-12-17T21:45:05.092Z,97594.22
2023-12-17T21:47:32.178Z,97598.34
2023-12-17T21:49:59.286Z,97599.63
2023-12-17T21:52:32.179Z,97595.03
2023-12-17T21:55:00.770Z,97600.34
2023-12-17T21:57:40.281Z,97601.31
2023-12-17T22:00:17.068Z,97610.91
2023-12-17T22:02:44.616Z,97616.41
2023-12-17T22:05:11.998Z,97608.13
2023-12-17T22:07:39.350Z,97610.03
2023-12-17T22:10:07.328Z,97605.28
2023-12-17T22:12:34.541Z,97603.31
2023-12-17T22:15:02.167Z,97601.09
2023-12-17T22:17:30.703Z,97604.53
2023-12-17T22:19:58.526Z,97603.31
2023-12-17T22:22:25.585Z,97597.28
2023-12-17T22:24:52.753Z,97598.22
2023-12-17T22:27:19.968Z,97597.94
2023-12-17T22:29:47.089Z,97597.78
2023-12-17T22:32:14.392Z,97588.56
2023-12-17T22:34:42.988Z,97587.88
2023-12-17T22:37:10.230Z,97591.19
2023-12-17T22:39:37.954Z,97601.47
2023-12-17T22:42:06.359Z,97594.50
2023-12-17T22:44:33.489Z,97590.22
2023-12-17T22:47:00.535Z,97593.84
2023-12-17T22:49:27.788Z,97591.22
2023-12-17T22:51:56.567Z,97591.69
2023-12-17T22:54:23.919Z,97593.69
2023-12-17T22:56:50.999Z,97597.97
2023-12-17T22:59:18.867Z,97589.69
2023-12-17T23:01:49.003Z,97589.84
2023-12-17T23:04:16.075Z,97592.19
2023-12-17T23:06:43.267Z,97592.75
2023-12-17T23:09:11.789Z,97588.91
2023-12-17T23:11:39.082Z,97587.38
2023-12-17T23:14:06.174Z,97582.72
2023-12-17T23:16:33.187Z,97583.56
2023-12-17T23:19:00.454Z,97590.53
2023-12-17T23:21:27.841Z,97581.09
2023-12-17T23:23:54.784Z,97586.66
2023-12-17T23:26:23.196Z,97580.94
2023-12-17T23:28:50.261Z,97583.78
2023-12-17T23:31:17.311Z,97586.16
2023-12-17T23:33:44.744Z,97580.81
2023-12-17T23:36:11.893Z,97579.53
2023-12-17T23:38:38.925Z,97578.16
2023-12-17T23:41:05.835Z,97573.88
2023-12-17T23:43:34.205Z,97570.47
2023-12-17T23:46:01.142Z,97573.06
2023-12-17T23:48:28.445Z,97561.81
2023-12-17T23:50:55.586Z,97561.44
2023-12-17T23:53:22.712Z,97571.72
2023-12-17T23:55:49.638Z,97578.84
2023-12-17T23:58:16.662Z,97566.25
